Lucile, ID (83542)

4:13 PM PDT on July 22, 2014 (GMT -0700)
RAWS PITTSBURG LANDING ID US (MPLFI1) Elev 1356 ft | 45.64 °N, 116.47 °W | Change Station
Active Advisory: Fire Weather Warning

Current weather conditions updated 45 minutes ago

Clear
Clear
102 °F
Feels Like 96 °F
N
8
Wind Variable Wind from SSE
Gusts 33.0 mph

Tomorrow is forecast to be Much Cooler than today.

Today
High -- | Low -- °F
--% Chance of Precip.
Yesterday
High -- | Low -- °F
Precip. -- in
5:18 AM 8:24 PM
Waning Crescent, 14% visible
Pressure 30.13 in
Visibility 10.0 miles
Clouds Scattered Clouds 11000 ft
Heat Index 96 °F
Dew Point 32 °F
Humidity 9%
Rainfall 0.00 in
Snow Depth Not available.
UV 5 out of 12
Pollen 5.50 out of 12
PM2.5 Moderate
Flu Activity Not available.
METAR KGIC 222255Z AUTO 36008G16KT 10SM SCT110 28/07 A3013 RMK AO1 T02840069

More Conditions Fewer Conditions

Pressure 30.13 in
Visibility 10.0 miles
Clouds Scattered Clouds 11000 ft
Heat Index 96 °F
Dew Point 32 °F
Humidity 9%
Rainfall 0.00 in
Snow Depth Not available.
UV 5 out of 12
Pollen 5.50 out of 12
PM2.5 Moderate
Flu Activity Not available.
METAR KGIC 222255Z AUTO 36008G16KT 10SM SCT110 28/07 A3013 RMK AO1 T02840069

More Conditions Fewer Conditions

10-Day Weather Forecast

Almanac

Astronomy

Jul. 22, 2014 Rise Set
Actual Time 5:18 AM PDT 8:24 PM PDT
Civil Twilight 4:42 AM PDT 9:00 PM PDT
Nautical Twilight 3:56 AM PDT 9:45 PM PDT
Astronomical Twilight 3:00 AM PDT 10:41 PM PDT
Moon 1:56 AM PDT 5:05 PM PDT
Length of Visible Light 16h 17m
Length of Day
15h 06m
Tomorrow will be 2m 4s shorter.
Waning Crescent, 14% of the Moon is Illuminated
Today
Waning Crescent
Jul 26
New
Aug 3
First Quarter
Aug 10
Full
Aug 17
Last Quarter

Today's Extremes

State Highs State Lows

Community

WunderPhotos

Upload Photos

1,736,391 photos uploaded!

Nearby

Air Quality

  Air Quality AQ Index Pollutant
Yesterday Good
PM2.5
Current Moderate
PM2.5
Tuesday Good
PM2.5
Wednesday Good
PM2.5
Thursday Good
PM2.5

Snow Depth

Station Depth Elevation
West Branch 19 in 5560 ft
Brundage Reservoir 0 in 6300 ft
Bear Basin 0 in 5350 ft
Long Valley 0 in 4890 ft
Big Creek Summit 1 in 6580 ft

Earthquake Activity

City Distance Mag. Time & Date
No recent earthquake activity has been reported nearby.
Minimum magnitude displayed is 2.5.

Coastal Water Temperatures

Place Temperature
No Stations Reporting

Nearby Weather Stations

Station Location Temp. Heat Index Dew Point Humidity Wind Precip. Elev Updated Type
RAWS SLATE CREEK ID, Lucile, ID 95 °F 91 °F 43 °F 17% SW  at  8 mph 0.00 in / hr 1567 ft 3:10 PM PDT MADIS
RAWS PITTSBURG LANDING ID, Lucile, ID 102 °F 96 °F 32 °F 9% SSE  at  8 mph 0.00 in / hr 1356 ft 3:28 PM PDT MADIS
ITD Top of Whitebird Hill ID , White Bird, ID 79 °F 79 °F 44 °F 29% North  at  8 mph 0.00 in / hr 4222 ft 3:30 PM PDT MADIS
High Camp, Grangeville, ID 68.9 °F - 48 °F 47% North  at  11.0 mph 0.00 in / hr 6098 ft 4:13 PM PDT Rapid Fire

Show More Stations Show Fewer Stations